Terminal Aerodrome Forecast
Issued by NWS

Home | Current Version | Previous Version | Text Only | Print | Product List | Glossary On
Versions: 1 2 3 4 5 6 7 8 9 10 11 12
000
FTUS46 KSTO 301100
TAFSCK
TAF
KSCK 301120Z 3012/3112 VRB03KT P6SM SCT200
     FM301700 30007KT P6SM FEW250
     FM302200 28014G20KT P6SM FEW250
     FM310600 29007KT P6SM SKC=

USA.gov is the U.S. government's official web portal to all federal, state and local government web resources and services.